sensor_id;sensor_type;location;lat;lon;timestamp;P1;durP1;ratioP1;P2;durP2;ratioP2
773;SDS011;370;48.810;9.150;2023-03-12T00:00:01;1.50;;;0.47;;
773;SDS011;370;48.810;9.150;2023-03-12T00:02:31;0.90;;;0.80;;
773;SDS011;370;48.810;9.150;2023-03-12T00:04:58;0.82;;;0.73;;
773;SDS011;370;48.810;9.150;2023-03-12T00:07:25;1.33;;;1.23;;
773;SDS011;370;48.810;9.150;2023-03-12T00:09:51;0.73;;;0.63;;
773;SDS011;370;48.810;9.150;2023-03-12T00:12:18;0.40;;;0.40;;
773;SDS011;370;48.810;9.150;2023-03-12T00:14:46;2.33;;;1.45;;
773;SDS011;370;48.810;9.150;2023-03-12T00:17:13;0.98;;;0.80;;
773;SDS011;370;48.810;9.150;2023-03-12T00:19:40;0.73;;;0.63;;
773;SDS011;370;48.810;9.150;2023-03-12T00:22:06;0.75;;;0.55;;
773;SDS011;370;48.810;9.150;2023-03-12T00:24:33;0.95;;;0.60;;
773;SDS011;370;48.810;9.150;2023-03-12T00:27:00;1.05;;;0.82;;
773;SDS011;370;48.810;9.150;2023-03-12T00:29:26;0.50;;;0.30;;
773;SDS011;370;48.810;9.150;2023-03-12T00:31:54;1.17;;;0.98;;
773;SDS011;370;48.810;9.150;2023-03-12T00:34:21;0.73;;;0.63;;
773;SDS011;370;48.810;9.150;2023-03-12T00:36:48;0.57;;;0.40;;
773;SDS011;370;48.810;9.150;2023-03-12T00:39:14;0.40;;;0.30;;
773;SDS011;370;48.810;9.150;2023-03-12T00:41:41;1.50;;;0.80;;
773;SDS011;370;48.810;9.150;2023-03-12T00:44:08;0.40;;;0.30;;
773;SDS011;370;48.810;9.150;2023-03-12T00:46:34;11.88;;;1.92;;
773;SDS011;370;48.810;9.150;2023-03-12T00:49:02;0.68;;;0.60;;
773;SDS011;370;48.810;9.150;2023-03-12T00:51:29;2.05;;;1.33;;
773;SDS011;370;48.810;9.150;2023-03-12T00:53:56;0.40;;;0.40;;
773;SDS011;370;48.810;9.150;2023-03-12T00:56:22;0.75;;;0.65;;
773;SDS011;370;48.810;9.150;2023-03-12T00:58:49;0.70;;;0.45;;
773;SDS011;370;48.810;9.150;2023-03-12T01:01:16;1.60;;;1.05;;
773;SDS011;370;48.810;9.150;2023-03-12T01:03:44;2.50;;;0.80;;
773;SDS011;370;48.810;9.150;2023-03-12T01:06:12;0.40;;;0.40;;
773;SDS011;370;48.810;9.150;2023-03-12T01:08:39;0.63;;;0.50;;
773;SDS011;370;48.810;9.150;2023-03-12T01:11:05;2.17;;;0.75;;
773;SDS011;370;48.810;9.150;2023-03-12T01:13:32;1.25;;;1.02;;
773;SDS011;370;48.810;9.150;2023-03-12T01:15:59;3.00;;;1.25;;
773;SDS011;370;48.810;9.150;2023-03-12T01:18:26;2.70;;;1.88;;
773;SDS011;370;48.810;9.150;2023-03-12T01:20:52;5.75;;;1.65;;
773;SDS011;370;48.810;9.150;2023-03-12T01:23:20;1.15;;;0.95;;
773;SDS011;370;48.810;9.150;2023-03-12T01:25:47;6.93;;;1.67;;
773;SDS011;370;48.810;9.150;2023-03-12T01:28:15;1.08;;;0.98;;
773;SDS011;370;48.810;9.150;2023-03-12T01:30:42;1.10;;;0.98;;
773;SDS011;370;48.810;9.150;2023-03-12T01:33:09;4.32;;;1.33;;
773;SDS011;370;48.810;9.150;2023-03-12T01:35:36;1.15;;;0.95;;
773;SDS011;370;48.810;9.150;2023-03-12T01:38:03;0.60;;;0.50;;
773;SDS011;370;48.810;9.150;2023-03-12T01:40:33;0.40;;;0.40;;
773;SDS011;370;48.810;9.150;2023-03-12T01:43:19;3.90;;;0.52;;
773;SDS011;370;48.810;9.150;2023-03-12T01:45:57;0.40;;;0.40;;
773;SDS011;370;48.810;9.150;2023-03-12T01:48:42;1.30;;;0.60;;
773;SDS011;370;48.810;9.150;2023-03-12T01:51:13;3.42;;;0.50;;
773;SDS011;370;48.810;9.150;2023-03-12T01:53:41;0.50;;;0.40;;
773;SDS011;370;48.810;9.150;2023-03-12T01:56:11;0.95;;;0.75;;
773;SDS011;370;48.810;9.150;2023-03-12T01:58:41;2.63;;;0.65;;
773;SDS011;370;48.810;9.150;2023-03-12T02:01:10;4.05;;;0.95;;
773;SDS011;370;48.810;9.150;2023-03-12T02:03:37;2.05;;;1.25;;
773;SDS011;370;48.810;9.150;2023-03-12T02:06:06;0.77;;;0.63;;
773;SDS011;370;48.810;9.150;2023-03-12T02:08:37;2.92;;;1.33;;
773;SDS011;370;48.810;9.150;2023-03-12T02:11:07;0.93;;;0.68;;
773;SDS011;370;48.810;9.150;2023-03-12T02:13:35;0.63;;;0.55;;
773;SDS011;370;48.810;9.150;2023-03-12T02:16:02;0.80;;;0.70;;
773;SDS011;370;48.810;9.150;2023-03-12T02:18:29;3.05;;;0.52;;
773;SDS011;370;48.810;9.150;2023-03-12T02:20:58;7.22;;;0.90;;
773;SDS011;370;48.810;9.150;2023-03-12T02:23:34;1.15;;;0.43;;
773;SDS011;370;48.810;9.150;2023-03-12T02:26:08;0.63;;;0.52;;
773;SDS011;370;48.810;9.150;2023-03-12T02:28:37;16.85;;;2.05;;
773;SDS011;370;48.810;9.150;2023-03-12T02:31:08;1.23;;;0.80;;
773;SDS011;370;48.810;9.150;2023-03-12T02:33:37;14.00;;;1.05;;
773;SDS011;370;48.810;9.150;2023-03-12T02:36:04;0.95;;;0.60;;
773;SDS011;370;48.810;9.150;2023-03-12T02:38:33;1.55;;;0.88;;
773;SDS011;370;48.810;9.150;2023-03-12T02:41:03;0.50;;;0.50;;
773;SDS011;370;48.810;9.150;2023-03-12T02:43:36;0.77;;;0.75;;
773;SDS011;370;48.810;9.150;2023-03-12T02:46:03;2.13;;;1.20;;
773;SDS011;370;48.810;9.150;2023-03-12T02:48:30;2.47;;;0.57;;
773;SDS011;370;48.810;9.150;2023-03-12T02:50:57;0.70;;;0.70;;
773;SDS011;370;48.810;9.150;2023-03-12T02:53:23;0.65;;;0.65;;
773;SDS011;370;48.810;9.150;2023-03-12T02:55:50;1.10;;;0.95;;
773;SDS011;370;48.810;9.150;2023-03-12T02:58:17;1.48;;;1.05;;
773;SDS011;370;48.810;9.150;2023-03-12T03:00:45;9.00;;;1.05;;
773;SDS011;370;48.810;9.150;2023-03-12T03:03:11;2.05;;;1.35;;
773;SDS011;370;48.810;9.150;2023-03-12T03:05:38;1.58;;;1.02;;
773;SDS011;370;48.810;9.150;2023-03-12T03:08:05;1.08;;;0.98;;
773;SDS011;370;48.810;9.150;2023-03-12T03:10:32;6.63;;;0.90;;
773;SDS011;370;48.810;9.150;2023-03-12T03:12:59;3.05;;;1.10;;
773;SDS011;370;48.810;9.150;2023-03-12T03:15:26;1.40;;;0.75;;
773;SDS011;370;48.810;9.150;2023-03-12T03:17:54;1.35;;;1.00;;
773;SDS011;370;48.810;9.150;2023-03-12T03:20:22;4.15;;;0.77;;
773;SDS011;370;48.810;9.150;2023-03-12T03:22:50;0.95;;;0.90;;
773;SDS011;370;48.810;9.150;2023-03-12T03:25:17;1.98;;;0.77;;
773;SDS011;370;48.810;9.150;2023-03-12T03:27:46;1.88;;;0.60;;
773;SDS011;370;48.810;9.150;2023-03-12T03:30:13;3.47;;;1.80;;
773;SDS011;370;48.810;9.150;2023-03-12T03:32:40;2.70;;;1.38;;
773;SDS011;370;48.810;9.150;2023-03-12T03:35:09;1.30;;;0.60;;
773;SDS011;370;48.810;9.150;2023-03-12T03:37:35;4.68;;;0.85;;
773;SDS011;370;48.810;9.150;2023-03-12T03:40:02;2.35;;;1.60;;
773;SDS011;370;48.810;9.150;2023-03-12T03:42:30;1.92;;;1.42;;
773;SDS011;370;48.810;9.150;2023-03-12T03:44:56;2.47;;;1.13;;
773;SDS011;370;48.810;9.150;2023-03-12T03:47:23;1.73;;;1.23;;
773;SDS011;370;48.810;9.150;2023-03-12T03:49:50;1.85;;;1.35;;
773;SDS011;370;48.810;9.150;2023-03-12T03:52:18;12.73;;;2.28;;
773;SDS011;370;48.810;9.150;2023-03-12T03:54:44;3.00;;;1.30;;
773;SDS011;370;48.810;9.150;2023-03-12T03:57:11;1.80;;;1.45;;
773;SDS011;370;48.810;9.150;2023-03-12T03:59:38;2.15;;;1.95;;
773;SDS011;370;48.810;9.150;2023-03-12T04:02:04;3.05;;;1.48;;
773;SDS011;370;48.810;9.150;2023-03-12T04:04:31;2.65;;;1.05;;
773;SDS011;370;48.810;9.150;2023-03-12T04:06:58;6.20;;;1.90;;
773;SDS011;370;48.810;9.150;2023-03-12T04:09:26;5.05;;;2.17;;
773;SDS011;370;48.810;9.150;2023-03-12T04:11:54;1.45;;;1.30;;
773;SDS011;370;48.810;9.150;2023-03-12T04:14:21;2.85;;;1.85;;
773;SDS011;370;48.810;9.150;2023-03-12T04:16:48;1.60;;;1.25;;
773;SDS011;370;48.810;9.150;2023-03-12T04:19:14;1.27;;;1.20;;
773;SDS011;370;48.810;9.150;2023-03-12T04:21:41;2.92;;;1.00;;
773;SDS011;370;48.810;9.150;2023-03-12T04:24:11;7.82;;;2.08;;
773;SDS011;370;48.810;9.150;2023-03-12T04:26:41;5.85;;;2.08;;
773;SDS011;370;48.810;9.150;2023-03-12T04:29:08;6.50;;;3.65;;
773;SDS011;370;48.810;9.150;2023-03-12T04:31:34;1.98;;;1.30;;
773;SDS011;370;48.810;9.150;2023-03-12T04:34:01;3.45;;;1.98;;
773;SDS011;370;48.810;9.150;2023-03-12T04:36:28;1.85;;;1.35;;
773;SDS011;370;48.810;9.150;2023-03-12T04:38:55;1.25;;;1.20;;
773;SDS011;370;48.810;9.150;2023-03-12T04:41:22;3.42;;;1.25;;
773;SDS011;370;48.810;9.150;2023-03-12T04:43:50;2.00;;;1.88;;
773;SDS011;370;48.810;9.150;2023-03-12T04:46:17;3.92;;;1.08;;
773;SDS011;370;48.810;9.150;2023-03-12T04:48:44;2.78;;;2.10;;
773;SDS011;370;48.810;9.150;2023-03-12T04:51:10;3.38;;;1.35;;
773;SDS011;370;48.810;9.150;2023-03-12T04:53:37;4.45;;;3.03;;
773;SDS011;370;48.810;9.150;2023-03-12T04:56:04;3.25;;;1.52;;
773;SDS011;370;48.810;9.150;2023-03-12T04:58:31;1.80;;;1.75;;
773;SDS011;370;48.810;9.150;2023-03-12T05:00:59;3.85;;;2.35;;
773;SDS011;370;48.810;9.150;2023-03-12T05:03:26;2.10;;;1.35;;
773;SDS011;370;48.810;9.150;2023-03-12T05:05:53;2.30;;;1.60;;
773;SDS011;370;48.810;9.150;2023-03-12T05:08:19;1.90;;;1.85;;
773;SDS011;370;48.810;9.150;2023-03-12T05:10:46;2.35;;;1.20;;
773;SDS011;370;48.810;9.150;2023-03-12T05:13:13;3.83;;;2.28;;
773;SDS011;370;48.810;9.150;2023-03-12T05:15:41;11.43;;;1.92;;
773;SDS011;370;48.810;9.150;2023-03-12T05:18:09;3.47;;;1.67;;
773;SDS011;370;48.810;9.150;2023-03-12T05:20:36;7.68;;;1.85;;
773;SDS011;370;48.810;9.150;2023-03-12T05:23:03;5.88;;;2.15;;
773;SDS011;370;48.810;9.150;2023-03-12T05:25:30;3.95;;;1.52;;
773;SDS011;370;48.810;9.150;2023-03-12T05:27:57;7.07;;;2.38;;
773;SDS011;370;48.810;9.150;2023-03-12T05:30:23;3.35;;;1.73;;
773;SDS011;370;48.810;9.150;2023-03-12T05:32:50;1.67;;;1.33;;
773;SDS011;370;48.810;9.150;2023-03-12T05:35:18;3.42;;;1.80;;
773;SDS011;370;48.810;9.150;2023-03-12T05:37:45;3.70;;;2.40;;
773;SDS011;370;48.810;9.150;2023-03-12T05:40:12;6.43;;;2.13;;
773;SDS011;370;48.810;9.150;2023-03-12T05:42:39;2.20;;;1.23;;
773;SDS011;370;48.810;9.150;2023-03-12T05:45:06;2.30;;;1.90;;
773;SDS011;370;48.810;9.150;2023-03-12T05:47:34;1.55;;;1.30;;
773;SDS011;370;48.810;9.150;2023-03-12T05:50:00;2.15;;;1.23;;
773;SDS011;370;48.810;9.150;2023-03-12T05:52:28;1.08;;;1.00;;
773;SDS011;370;48.810;9.150;2023-03-12T05:54:55;1.00;;;0.90;;
773;SDS011;370;48.810;9.150;2023-03-12T05:57:22;3.08;;;1.45;;
773;SDS011;370;48.810;9.150;2023-03-12T05:59:49;3.60;;;1.85;;
773;SDS011;370;48.810;9.150;2023-03-12T06:02:15;4.50;;;2.47;;
773;SDS011;370;48.810;9.150;2023-03-12T06:04:42;4.82;;;1.70;;
773;SDS011;370;48.810;9.150;2023-03-12T06:07:09;2.40;;;1.80;;
773;SDS011;370;48.810;9.150;2023-03-12T06:09:37;4.07;;;1.95;;
773;SDS011;370;48.810;9.150;2023-03-12T06:12:04;11.63;;;2.00;;
773;SDS011;370;48.810;9.150;2023-03-12T06:14:31;9.90;;;2.42;;
773;SDS011;370;48.810;9.150;2023-03-12T06:16:57;1.95;;;1.85;;
773;SDS011;370;48.810;9.150;2023-03-12T06:19:24;2.95;;;1.55;;
773;SDS011;370;48.810;9.150;2023-03-12T06:21:51;1.92;;;1.02;;
773;SDS011;370;48.810;9.150;2023-03-12T06:24:17;5.30;;;2.60;;
773;SDS011;370;48.810;9.150;2023-03-12T06:26:45;0.82;;;0.65;;
773;SDS011;370;48.810;9.150;2023-03-12T06:29:12;3.47;;;1.65;;
773;SDS011;370;48.810;9.150;2023-03-12T06:31:39;2.70;;;1.83;;
773;SDS011;370;48.810;9.150;2023-03-12T06:34:06;1.30;;;1.20;;
773;SDS011;370;48.810;9.150;2023-03-12T06:36:34;7.35;;;1.67;;
773;SDS011;370;48.810;9.150;2023-03-12T06:39:00;7.15;;;1.80;;
773;SDS011;370;48.810;9.150;2023-03-12T06:41:30;1.10;;;1.02;;
773;SDS011;370;48.810;9.150;2023-03-12T06:43:59;2.25;;;1.65;;
773;SDS011;370;48.810;9.150;2023-03-12T06:46:27;2.88;;;1.60;;
773;SDS011;370;48.810;9.150;2023-03-12T06:48:54;2.58;;;2.45;;
773;SDS011;370;48.810;9.150;2023-03-12T06:51:21;1.92;;;1.52;;
773;SDS011;370;48.810;9.150;2023-03-12T06:53:48;3.75;;;2.35;;
773;SDS011;370;48.810;9.150;2023-03-12T06:56:14;11.48;;;2.83;;
773;SDS011;370;48.810;9.150;2023-03-12T06:58:41;2.28;;;1.60;;
773;SDS011;370;48.810;9.150;2023-03-12T07:01:10;3.70;;;1.88;;
773;SDS011;370;48.810;9.150;2023-03-12T07:03:36;2.80;;;1.80;;
773;SDS011;370;48.810;9.150;2023-03-12T07:06:03;1.73;;;1.63;;
773;SDS011;370;48.810;9.150;2023-03-12T07:08:37;18.50;;;2.00;;
773;SDS011;370;48.810;9.150;2023-03-12T07:11:04;23.30;;;3.33;;
773;SDS011;370;48.810;9.150;2023-03-12T07:13:30;2.95;;;2.03;;
773;SDS011;370;48.810;9.150;2023-03-12T07:15:57;3.33;;;2.53;;
773;SDS011;370;48.810;9.150;2023-03-12T07:18:25;2.38;;;1.50;;
773;SDS011;370;48.810;9.150;2023-03-12T07:20:52;3.33;;;2.10;;
773;SDS011;370;48.810;9.150;2023-03-12T07:23:19;2.38;;;2.17;;
773;SDS011;370;48.810;9.150;2023-03-12T07:25:46;4.53;;;2.08;;
773;SDS011;370;48.810;9.150;2023-03-12T07:28:13;4.75;;;2.60;;
773;SDS011;370;48.810;9.150;2023-03-12T07:30:41;8.55;;;2.55;;
773;SDS011;370;48.810;9.150;2023-03-12T07:33:08;5.28;;;2.95;;
773;SDS011;370;48.810;9.150;2023-03-12T07:35:38;3.38;;;1.90;;
773;SDS011;370;48.810;9.150;2023-03-12T07:38:05;5.88;;;1.70;;
773;SDS011;370;48.810;9.150;2023-03-12T07:40:32;5.32;;;1.90;;
773;SDS011;370;48.810;9.150;2023-03-12T07:42:59;8.75;;;1.90;;
773;SDS011;370;48.810;9.150;2023-03-12T07:45:26;2.03;;;1.73;;
773;SDS011;370;48.810;9.150;2023-03-12T07:47:53;13.48;;;2.53;;
773;SDS011;370;48.810;9.150;2023-03-12T07:50:20;2.30;;;1.27;;
773;SDS011;370;48.810;9.150;2023-03-12T07:52:48;3.33;;;2.10;;
773;SDS011;370;48.810;9.150;2023-03-12T07:55:15;2.30;;;1.35;;
773;SDS011;370;48.810;9.150;2023-03-12T07:57:41;2.33;;;1.60;;
773;SDS011;370;48.810;9.150;2023-03-12T08:00:09;3.80;;;2.45;;
773;SDS011;370;48.810;9.150;2023-03-12T08:02:36;3.20;;;1.75;;
773;SDS011;370;48.810;9.150;2023-03-12T08:05:03;9.00;;;3.05;;
773;SDS011;370;48.810;9.150;2023-03-12T08:07:31;6.20;;;3.05;;
773;SDS011;370;48.810;9.150;2023-03-12T08:10:00;1.77;;;1.73;;
773;SDS011;370;48.810;9.150;2023-03-12T08:12:28;3.35;;;2.03;;
773;SDS011;370;48.810;9.150;2023-03-12T08:14:55;4.15;;;2.17;;
773;SDS011;370;48.810;9.150;2023-03-12T08:17:22;5.65;;;2.25;;
773;SDS011;370;48.810;9.150;2023-03-12T08:19:49;3.00;;;2.00;;
773;SDS011;370;48.810;9.150;2023-03-12T08:22:15;4.65;;;2.58;;
773;SDS011;370;48.810;9.150;2023-03-12T08:24:42;4.45;;;2.05;;
773;SDS011;370;48.810;9.150;2023-03-12T08:27:10;4.03;;;2.05;;
773;SDS011;370;48.810;9.150;2023-03-12T08:29:37;2.25;;;1.73;;
773;SDS011;370;48.810;9.150;2023-03-12T08:32:04;3.35;;;2.30;;
773;SDS011;370;48.810;9.150;2023-03-12T08:34:32;4.20;;;2.47;;
773;SDS011;370;48.810;9.150;2023-03-12T08:36:59;2.55;;;1.45;;
773;SDS011;370;48.810;9.150;2023-03-12T08:39:26;6.13;;;1.85;;
773;SDS011;370;48.810;9.150;2023-03-12T08:41:53;3.33;;;2.15;;
773;SDS011;370;48.810;9.150;2023-03-12T08:44:22;6.95;;;2.33;;
773;SDS011;370;48.810;9.150;2023-03-12T08:46:49;4.20;;;2.08;;
773;SDS011;370;48.810;9.150;2023-03-12T08:49:15;4.95;;;1.98;;
773;SDS011;370;48.810;9.150;2023-03-12T08:51:42;3.65;;;2.42;;
773;SDS011;370;48.810;9.150;2023-03-12T08:54:09;3.63;;;1.75;;
773;SDS011;370;48.810;9.150;2023-03-12T08:56:36;2.55;;;1.88;;
773;SDS011;370;48.810;9.150;2023-03-12T08:59:06;7.22;;;2.47;;
773;SDS011;370;48.810;9.150;2023-03-12T09:01:34;2.10;;;1.95;;
773;SDS011;370;48.810;9.150;2023-03-12T09:04:01;2.65;;;2.47;;
773;SDS011;370;48.810;9.150;2023-03-12T09:06:28;6.25;;;2.90;;
773;SDS011;370;48.810;9.150;2023-03-12T09:08:55;7.45;;;3.60;;
773;SDS011;370;48.810;9.150;2023-03-12T09:11:21;4.30;;;2.13;;
773;SDS011;370;48.810;9.150;2023-03-12T09:13:48;3.70;;;2.30;;
773;SDS011;370;48.810;9.150;2023-03-12T09:16:15;5.80;;;3.00;;
773;SDS011;370;48.810;9.150;2023-03-12T09:18:43;3.05;;;1.88;;
773;SDS011;370;48.810;9.150;2023-03-12T09:21:09;1.98;;;1.70;;
773;SDS011;370;48.810;9.150;2023-03-12T09:23:36;5.88;;;2.53;;
773;SDS011;370;48.810;9.150;2023-03-12T09:26:03;3.20;;;2.08;;
773;SDS011;370;48.810;9.150;2023-03-12T09:28:30;4.25;;;2.80;;
773;SDS011;370;48.810;9.150;2023-03-12T09:30:56;2.65;;;1.80;;
773;SDS011;370;48.810;9.150;2023-03-12T09:33:26;7.78;;;2.40;;
773;SDS011;370;48.810;9.150;2023-03-12T09:35:57;19.10;;;3.20;;
773;SDS011;370;48.810;9.150;2023-03-12T09:38:25;3.65;;;2.30;;
773;SDS011;370;48.810;9.150;2023-03-12T09:40:52;2.03;;;1.80;;
773;SDS011;370;48.810;9.150;2023-03-12T09:43:21;3.28;;;2.15;;
773;SDS011;370;48.810;9.150;2023-03-12T09:45:51;5.93;;;2.70;;
773;SDS011;370;48.810;9.150;2023-03-12T09:48:22;4.88;;;2.47;;
773;SDS011;370;48.810;9.150;2023-03-12T09:50:53;4.13;;;1.73;;
773;SDS011;370;48.810;9.150;2023-03-12T09:53:23;3.92;;;2.50;;
773;SDS011;370;48.810;9.150;2023-03-12T09:55:54;5.03;;;2.33;;
773;SDS011;370;48.810;9.150;2023-03-12T09:58:24;4.53;;;2.38;;
773;SDS011;370;48.810;9.150;2023-03-12T10:00:52;4.82;;;1.90;;
773;SDS011;370;48.810;9.150;2023-03-12T10:03:27;6.05;;;2.92;;
773;SDS011;370;48.810;9.150;2023-03-12T10:06:17;4.38;;;2.85;;
773;SDS011;370;48.810;9.150;2023-03-12T10:08:50;5.72;;;2.72;;
773;SDS011;370;48.810;9.150;2023-03-12T10:11:26;4.93;;;2.80;;
773;SDS011;370;48.810;9.150;2023-03-12T10:14:05;6.63;;;3.10;;
773;SDS011;370;48.810;9.150;2023-03-12T10:16:53;8.95;;;4.07;;
773;SDS011;370;48.810;9.150;2023-03-12T10:19:36;5.07;;;2.60;;
773;SDS011;370;48.810;9.150;2023-03-12T10:22:15;4.30;;;2.75;;
773;SDS011;370;48.810;9.150;2023-03-12T10:24:53;8.13;;;4.22;;
773;SDS011;370;48.810;9.150;2023-03-12T10:27:26;7.95;;;3.58;;
773;SDS011;370;48.810;9.150;2023-03-12T10:29:55;2.78;;;1.83;;
773;SDS011;370;48.810;9.150;2023-03-12T10:32:24;2.58;;;1.30;;
773;SDS011;370;48.810;9.150;2023-03-12T10:35:02;0.90;;;0.80;;
773;SDS011;370;48.810;9.150;2023-03-12T10:37:38;3.55;;;1.17;;
773;SDS011;370;48.810;9.150;2023-03-12T10:40:13;1.67;;;1.38;;
773;SDS011;370;48.810;9.150;2023-03-12T10:42:41;1.05;;;0.90;;
773;SDS011;370;48.810;9.150;2023-03-12T10:45:13;2.05;;;1.10;;
773;SDS011;370;48.810;9.150;2023-03-12T10:47:47;0.93;;;0.90;;
773;SDS011;370;48.810;9.150;2023-03-12T10:50:17;5.28;;;0.75;;
773;SDS011;370;48.810;9.150;2023-03-12T10:52:45;0.90;;;0.80;;
773;SDS011;370;48.810;9.150;2023-03-12T10:55:20;1.00;;;0.90;;
773;SDS011;370;48.810;9.150;2023-03-12T10:57:49;0.80;;;0.77;;
773;SDS011;370;48.810;9.150;2023-03-12T11:00:17;0.80;;;0.70;;
773;SDS011;370;48.810;9.150;2023-03-12T11:02:45;0.77;;;0.70;;
773;SDS011;370;48.810;9.150;2023-03-12T11:05:21;1.50;;;1.15;;
773;SDS011;370;48.810;9.150;2023-03-12T11:07:49;1.48;;;0.80;;
773;SDS011;370;48.810;9.150;2023-03-12T11:10:18;0.85;;;0.77;;
773;SDS011;370;48.810;9.150;2023-03-12T11:15:46;0.68;;;0.60;;
773;SDS011;370;48.810;9.150;2023-03-12T11:18:25;1.60;;;1.05;;
773;SDS011;370;48.810;9.150;2023-03-12T11:21:10;1.17;;;1.10;;
773;SDS011;370;48.810;9.150;2023-03-12T11:23:43;5.65;;;0.98;;
773;SDS011;370;48.810;9.150;2023-03-12T11:26:15;0.93;;;0.90;;
773;SDS011;370;48.810;9.150;2023-03-12T11:28:44;1.47;;;0.90;;
773;SDS011;370;48.810;9.150;2023-03-12T11:34:36;1.03;;;0.93;;
773;SDS011;370;48.810;9.150;2023-03-12T11:37:06;1.17;;;1.03;;
773;SDS011;370;48.810;9.150;2023-03-12T11:39:40;3.57;;;0.90;;
773;SDS011;370;48.810;9.150;2023-03-12T11:42:21;1.40;;;1.00;;
773;SDS011;370;48.810;9.150;2023-03-12T11:45:04;0.97;;;0.87;;
773;SDS011;370;48.810;9.150;2023-03-12T11:47:43;3.03;;;0.70;;
773;SDS011;370;48.810;9.150;2023-03-12T11:50:25;0.70;;;0.60;;
773;SDS011;370;48.810;9.150;2023-03-12T11:53:08;1.13;;;0.83;;
773;SDS011;370;48.810;9.150;2023-03-12T11:55:47;4.43;;;0.90;;
773;SDS011;370;48.810;9.150;2023-03-12T11:58:42;1.60;;;0.60;;
773;SDS011;370;48.810;9.150;2023-03-12T12:01:20;1.90;;;0.80;;
773;SDS011;370;48.810;9.150;2023-03-12T12:04:18;3.45;;;0.70;;
773;SDS011;370;48.810;9.150;2023-03-12T12:07:13;0.70;;;0.60;;
773;SDS011;370;48.810;9.150;2023-03-12T12:09:47;0.73;;;0.60;;
773;SDS011;370;48.810;9.150;2023-03-12T12:12:28;2.22;;;1.00;;
773;SDS011;370;48.810;9.150;2023-03-12T12:15:11;2.47;;;0.70;;
773;SDS011;370;48.810;9.150;2023-03-12T12:17:52;2.58;;;1.00;;
773;SDS011;370;48.810;9.150;2023-03-12T12:20:27;2.13;;;0.97;;
773;SDS011;370;48.810;9.150;2023-03-12T12:23:07;4.00;;;0.87;;
773;SDS011;370;48.810;9.150;2023-03-12T12:25:48;0.73;;;0.67;;
773;SDS011;370;48.810;9.150;2023-03-12T12:28:27;0.80;;;0.70;;
773;SDS011;370;48.810;9.150;2023-03-12T12:31:05;0.83;;;0.70;;
773;SDS011;370;48.810;9.150;2023-03-12T12:33:44;9.73;;;1.67;;
773;SDS011;370;48.810;9.150;2023-03-12T12:36:20;9.20;;;1.10;;
773;SDS011;370;48.810;9.150;2023-03-12T12:38:51;13.33;;;2.10;;
773;SDS011;370;48.810;9.150;2023-03-12T12:41:22;2.47;;;0.90;;
773;SDS011;370;48.810;9.150;2023-03-12T12:43:52;1.50;;;0.90;;
773;SDS011;370;48.810;9.150;2023-03-12T12:46:25;1.05;;;0.80;;
773;SDS011;370;48.810;9.150;2023-03-12T12:48:55;0.90;;;0.80;;
773;SDS011;370;48.810;9.150;2023-03-12T12:51:26;2.90;;;0.90;;
773;SDS011;370;48.810;9.150;2023-03-12T12:53:58;2.77;;;0.80;;
773;SDS011;370;48.810;9.150;2023-03-12T12:56:30;2.43;;;1.10;;
773;SDS011;370;48.810;9.150;2023-03-12T13:01:56;10.83;;;0.87;;
773;SDS011;370;48.810;9.150;2023-03-12T13:04:26;1.10;;;0.80;;
773;SDS011;370;48.810;9.150;2023-03-12T13:06:59;1.52;;;0.80;;
773;SDS011;370;48.810;9.150;2023-03-12T13:09:35;4.43;;;0.85;;
773;SDS011;370;48.810;9.150;2023-03-12T13:12:05;1.25;;;0.90;;
773;SDS011;370;48.810;9.150;2023-03-12T13:14:40;15.60;;;1.02;;
773;SDS011;370;48.810;9.150;2023-03-12T13:17:31;2.33;;;1.05;;
773;SDS011;370;48.810;9.150;2023-03-12T13:20:06;6.30;;;1.25;;
773;SDS011;370;48.810;9.150;2023-03-12T13:25:43;2.15;;;0.70;;
773;SDS011;370;48.810;9.150;2023-03-12T13:28:28;2.88;;;1.10;;
773;SDS011;370;48.810;9.150;2023-03-12T13:31:01;5.30;;;1.33;;
773;SDS011;370;48.810;9.150;2023-03-12T13:33:56;1.50;;;0.83;;
773;SDS011;370;48.810;9.150;2023-03-12T13:36:25;5.03;;;1.03;;
773;SDS011;370;48.810;9.150;2023-03-12T13:38:54;1.07;;;0.90;;
773;SDS011;370;48.810;9.150;2023-03-12T13:41:29;1.23;;;0.77;;
773;SDS011;370;48.810;9.150;2023-03-12T13:43:58;0.85;;;0.75;;
773;SDS011;370;48.810;9.150;2023-03-12T13:46:26;1.60;;;0.70;;
773;SDS011;370;48.810;9.150;2023-03-12T13:49:10;2.40;;;1.10;;
773;SDS011;370;48.810;9.150;2023-03-12T13:51:53;4.43;;;1.00;;
773;SDS011;370;48.810;9.150;2023-03-12T13:54:26;4.93;;;1.90;;
773;SDS011;370;48.810;9.150;2023-03-12T13:56:57;2.50;;;0.90;;
773;SDS011;370;48.810;9.150;2023-03-12T13:59:26;4.85;;;0.80;;
773;SDS011;370;48.810;9.150;2023-03-12T14:01:56;0.75;;;0.68;;
773;SDS011;370;48.810;9.150;2023-03-12T14:04:29;3.83;;;1.05;;
773;SDS011;370;48.810;9.150;2023-03-12T14:07:07;1.92;;;0.80;;
773;SDS011;370;48.810;9.150;2023-03-12T14:09:56;10.35;;;1.33;;
773;SDS011;370;48.810;9.150;2023-03-12T14:12:32;0.87;;;0.80;;
773;SDS011;370;48.810;9.150;2023-03-12T14:15:10;6.13;;;1.65;;
773;SDS011;370;48.810;9.150;2023-03-12T14:17:45;1.10;;;0.88;;
773;SDS011;370;48.810;9.150;2023-03-12T14:20:22;11.35;;;1.08;;
773;SDS011;370;48.810;9.150;2023-03-12T14:22:50;4.93;;;1.20;;
773;SDS011;370;48.810;9.150;2023-03-12T14:25:21;2.47;;;0.80;;
773;SDS011;370;48.810;9.150;2023-03-12T14:27:53;0.82;;;0.80;;
773;SDS011;370;48.810;9.150;2023-03-12T14:30:21;8.63;;;1.80;;
773;SDS011;370;48.810;9.150;2023-03-12T14:32:51;4.95;;;1.05;;
773;SDS011;370;48.810;9.150;2023-03-12T14:35:20;6.28;;;1.23;;
773;SDS011;370;48.810;9.150;2023-03-12T14:37:54;1.45;;;0.82;;
773;SDS011;370;48.810;9.150;2023-03-12T14:40:25;2.50;;;1.02;;
773;SDS011;370;48.810;9.150;2023-03-12T14:43:01;1.67;;;0.80;;
773;SDS011;370;48.810;9.150;2023-03-12T14:45:28;3.55;;;1.10;;
773;SDS011;370;48.810;9.150;2023-03-12T14:47:55;7.55;;;1.10;;
773;SDS011;370;48.810;9.150;2023-03-12T14:50:25;8.88;;;1.85;;
773;SDS011;370;48.810;9.150;2023-03-12T14:52:54;1.33;;;0.85;;
773;SDS011;370;48.810;9.150;2023-03-12T14:55:22;4.75;;;1.05;;
773;SDS011;370;48.810;9.150;2023-03-12T14:58:01;2.10;;;1.00;;
773;SDS011;370;48.810;9.150;2023-03-12T15:00:29;2.53;;;1.33;;
773;SDS011;370;48.810;9.150;2023-03-12T15:02:57;7.47;;;1.55;;
773;SDS011;370;48.810;9.150;2023-03-12T15:05:30;0.93;;;0.82;;
773;SDS011;370;48.810;9.150;2023-03-12T15:08:00;7.65;;;1.00;;
773;SDS011;370;48.810;9.150;2023-03-12T15:10:28;0.98;;;0.88;;
773;SDS011;370;48.810;9.150;2023-03-12T15:12:57;4.40;;;1.00;;
773;SDS011;370;48.810;9.150;2023-03-12T15:15:28;6.10;;;1.10;;
773;SDS011;370;48.810;9.150;2023-03-12T15:18:01;5.57;;;0.93;;
773;SDS011;370;48.810;9.150;2023-03-12T15:20:31;1.30;;;1.08;;
773;SDS011;370;48.810;9.150;2023-03-12T15:22:57;1.33;;;1.00;;
773;SDS011;370;48.810;9.150;2023-03-12T15:25:26;1.70;;;0.65;;
773;SDS011;370;48.810;9.150;2023-03-12T15:27:59;2.15;;;0.93;;
773;SDS011;370;48.810;9.150;2023-03-12T15:30:31;3.05;;;2.05;;
773;SDS011;370;48.810;9.150;2023-03-12T15:33:04;2.35;;;0.80;;
773;SDS011;370;48.810;9.150;2023-03-12T15:35:37;4.43;;;0.60;;
773;SDS011;370;48.810;9.150;2023-03-12T15:38:12;1.38;;;0.77;;
773;SDS011;370;48.810;9.150;2023-03-12T15:40:40;1.67;;;0.85;;
773;SDS011;370;48.810;9.150;2023-03-12T15:43:13;3.15;;;0.75;;
773;SDS011;370;48.810;9.150;2023-03-12T15:45:42;1.05;;;0.75;;
773;SDS011;370;48.810;9.150;2023-03-12T15:48:14;3.15;;;1.02;;
773;SDS011;370;48.810;9.150;2023-03-12T15:50:49;9.02;;;1.55;;
773;SDS011;370;48.810;9.150;2023-03-12T15:53:26;7.72;;;1.00;;
773;SDS011;370;48.810;9.150;2023-03-12T15:55:58;7.15;;;1.60;;
773;SDS011;370;48.810;9.150;2023-03-12T15:58:28;4.97;;;1.20;;
773;SDS011;370;48.810;9.150;2023-03-12T16:01:04;2.15;;;0.98;;
773;SDS011;370;48.810;9.150;2023-03-12T16:03:33;2.58;;;1.15;;
773;SDS011;370;48.810;9.150;2023-03-12T16:06:01;1.08;;;0.98;;
773;SDS011;370;48.810;9.150;2023-03-12T16:08:30;3.67;;;1.33;;
773;SDS011;370;48.810;9.150;2023-03-12T16:11:01;1.13;;;0.80;;
773;SDS011;370;48.810;9.150;2023-03-12T16:13:29;0.70;;;0.60;;